createdAt,value
2018-12-17T00:01:02.278Z,92.62
2018-12-17T00:03:29.641Z,86.00
2018-12-17T00:05:57.007Z,101.72
2018-12-17T00:08:24.222Z,105.15
2018-12-17T00:10:51.332Z,102.60
2018-12-17T00:15:52.517Z,99.50
2018-12-17T00:18:19.666Z,99.13
2018-12-17T00:20:46.805Z,83.73
2018-12-17T00:23:13.925Z,91.45
2018-12-17T00:25:41.129Z,84.20
2018-12-17T00:28:08.414Z,80.75
2018-12-17T00:30:35.737Z,93.60
2018-12-17T00:33:03.013Z,81.03
2018-12-17T00:35:30.140Z,86.85
2018-12-17T00:37:57.265Z,73.50
2018-12-17T00:40:24.624Z,84.40
2018-12-17T00:42:51.873Z,86.03
2018-12-17T00:45:19.001Z,77.53
2018-12-17T00:47:46.242Z,76.60
2018-12-17T00:50:13.378Z,78.62
2018-12-17T00:52:40.512Z,82.37
2018-12-17T00:55:07.789Z,94.53
2018-12-17T00:57:34.929Z,84.47
2018-12-17T01:00:02.729Z,100.57
2018-12-17T01:02:29.976Z,109.30
2018-12-17T01:04:57.089Z,91.73
2018-12-17T01:07:31.004Z,84.50
2018-12-17T01:09:58.584Z,72.25
2018-12-17T01:12:25.837Z,84.62
2018-12-17T01:14:53.288Z,93.47
2018-12-17T01:17:20.647Z,92.62
2018-12-17T01:19:47.953Z,90.57
2018-12-17T01:22:15.077Z,83.20
2018-12-17T01:24:42.205Z,88.30
2018-12-17T01:27:09.346Z,89.70
2018-12-17T01:29:36.553Z,89.72
2018-12-17T01:32:03.963Z,92.67
2018-12-17T01:34:31.099Z,88.23
2018-12-17T01:36:58.228Z,84.63
2018-12-17T01:39:25.506Z,90.87
2018-12-17T01:41:52.626Z,97.72
2018-12-17T01:44:19.797Z,102.35
2018-12-17T01:46:46.925Z,104.60
2018-12-17T01:49:14.062Z,93.20
2018-12-17T01:51:41.181Z,99.37
2018-12-17T01:54:08.449Z,92.47
2018-12-17T01:56:35.556Z,110.77
2018-12-17T01:59:02.910Z,82.53
2018-12-17T02:01:30.150Z,103.53
2018-12-17T02:03:57.285Z,89.95
2018-12-17T02:06:24.399Z,94.22
2018-12-17T02:08:51.565Z,94.30
2018-12-17T02:11:18.693Z,102.40
2018-12-17T02:13:46.321Z,111.55
2018-12-17T02:16:13.449Z,89.92
2018-12-17T02:18:40.666Z,113.57
2018-12-17T02:21:08.017Z,96.50
2018-12-17T02:23:35.137Z,120.10
2018-12-17T02:26:02.739Z,95.80
2018-12-17T02:28:35.970Z,114.65
2018-12-17T02:30:59.042Z,103.90
2018-12-17T02:33:26.148Z,102.02
2018-12-17T02:35:53.274Z,117.37
2018-12-17T02:38:20.398Z,99.55
2018-12-17T02:40:47.651Z,106.97
2018-12-17T02:43:14.836Z,86.12
2018-12-17T02:45:42.106Z,93.12
2018-12-17T02:48:09.241Z,89.45
2018-12-17T02:50:36.398Z,81.57
2018-12-17T02:53:03.529Z,90.62
2018-12-17T02:55:30.805Z,103.10
2018-12-17T02:57:58.028Z,84.07
2018-12-17T03:00:25.166Z,97.37
2018-12-17T03:02:52.283Z,88.58
2018-12-17T03:05:19.410Z,87.95
2018-12-17T03:07:46.707Z,97.37
2018-12-17T03:10:13.904Z,96.80
2018-12-17T03:12:41.163Z,91.30
2018-12-17T03:15:08.431Z,105.22
2018-12-17T03:17:35.689Z,105.97
2018-12-17T03:20:03.161Z,100.93
2018-12-17T03:22:30.505Z,96.47
2018-12-17T03:24:57.736Z,95.90
2018-12-17T03:27:24.981Z,107.00
2018-12-17T03:29:52.133Z,104.57
2018-12-17T03:32:19.390Z,119.80
2018-12-17T03:34:46.842Z,100.97
2018-12-17T03:37:13.975Z,95.40
2018-12-17T03:39:41.219Z,90.42
2018-12-17T03:42:08.685Z,98.57
2018-12-17T03:44:35.930Z,82.25
2018-12-17T03:47:03.393Z,79.90
2018-12-17T03:49:30.511Z,85.53
2018-12-17T03:51:57.741Z,96.63
2018-12-17T03:54:24.868Z,102.53
2018-12-17T03:56:52.131Z,76.55
2018-12-17T03:59:19.255Z,89.37
2018-12-17T04:01:46.394Z,83.30
2018-12-17T04:04:13.630Z,101.63
2018-12-17T04:06:40.769Z,86.33
2018-12-17T04:09:07.997Z,84.47
2018-12-17T04:11:35.346Z,70.03
2018-12-17T04:14:02.573Z,71.80
2018-12-17T04:16:29.733Z,80.65
2018-12-17T04:18:56.853Z,77.50
2018-12-17T04:21:24.130Z,71.53
2018-12-17T04:23:51.370Z,80.20
2018-12-17T04:26:18.536Z,67.62
2018-12-17T04:28:45.777Z,59.27
2018-12-17T04:31:13.036Z,62.95
2018-12-17T04:33:40.170Z,58.42
2018-12-17T04:36:07.413Z,51.42
2018-12-17T04:38:34.538Z,51.13
2018-12-17T04:41:01.785Z,46.73
2018-12-17T04:43:28.923Z,47.60
2018-12-17T04:45:56.068Z,45.35
2018-12-17T04:48:23.209Z,43.13
2018-12-17T04:50:50.555Z,44.63
2018-12-17T04:53:17.667Z,43.17
2018-12-17T04:55:44.893Z,43.80
2018-12-17T04:58:12.165Z,38.80
2018-12-17T05:00:39.393Z,35.53
2018-12-17T05:03:06.648Z,45.03
2018-12-17T05:05:34.869Z,40.77
2018-12-17T05:08:01.996Z,41.48
2018-12-17T05:10:29.128Z,38.60
2018-12-17T05:12:56.386Z,39.73
2018-12-17T05:15:23.509Z,43.40
2018-12-17T05:17:50.629Z,41.00
2018-12-17T05:20:24.841Z,42.63
2018-12-17T05:22:52.017Z,41.55
2018-12-17T05:25:19.144Z,35.83
2018-12-17T05:27:46.258Z,40.47
2018-12-17T05:30:13.834Z,38.25
2018-12-17T05:32:40.974Z,37.67
2018-12-17T05:35:08.399Z,32.43
2018-12-17T05:37:35.537Z,37.27
2018-12-17T05:40:03.238Z,35.27
2018-12-17T05:42:30.361Z,30.80
2018-12-17T05:44:57.629Z,33.13
2018-12-17T05:47:24.845Z,35.83
2018-12-17T05:49:51.982Z,32.33
2018-12-17T05:52:19.121Z,34.50
2018-12-17T05:54:46.290Z,35.77
2018-12-17T05:57:13.399Z,27.47
2018-12-17T05:59:40.670Z,28.10
2018-12-17T06:02:07.786Z,25.43
2018-12-17T06:04:34.896Z,27.37
2018-12-17T06:07:02.014Z,23.62
2018-12-17T06:09:29.258Z,24.53
2018-12-17T06:11:56.394Z,35.30
2018-12-17T06:14:23.525Z,28.27
2018-12-17T06:16:50.657Z,31.70
2018-12-17T06:19:17.793Z,30.93
2018-12-17T06:21:44.934Z,32.90
2018-12-17T06:24:12.069Z,34.77
2018-12-17T06:26:39.238Z,37.57
2018-12-17T06:29:06.356Z,28.83
2018-12-17T06:31:33.609Z,32.20
2018-12-17T06:34:00.742Z,28.90
2018-12-17T06:36:27.849Z,33.53
2018-12-17T06:38:55.089Z,33.97
2018-12-17T06:41:22.322Z,35.40
2018-12-17T06:43:49.459Z,33.57
2018-12-17T06:46:16.723Z,26.60
2018-12-17T06:48:43.845Z,35.50
2018-12-17T06:51:11.013Z,27.60
2018-12-17T06:53:38.134Z,24.13
2018-12-17T06:56:05.806Z,28.45
2018-12-17T06:58:33.776Z,28.83
2018-12-17T07:01:02.632Z,33.87
2018-12-17T07:03:30.537Z,30.27
2018-12-17T07:05:57.970Z,31.17
2018-12-17T07:08:25.491Z,27.90
2018-12-17T07:10:53.697Z,24.07
2018-12-17T07:13:21.507Z,31.10
2018-12-17T07:15:49.377Z,33.50
2018-12-17T07:18:17.091Z,32.93
2018-12-17T07:20:44.918Z,36.33
2018-12-17T07:23:13.055Z,27.70
2018-12-17T07:25:40.339Z,29.47
2018-12-17T07:28:07.531Z,29.43
2018-12-17T07:30:35.171Z,25.57
2018-12-17T07:33:03.057Z,31.00
2018-12-17T07:35:31.183Z,28.23
2018-12-17T07:37:59.393Z,28.03
2018-12-17T07:40:27.570Z,30.73
2018-12-17T07:42:56.223Z,33.10
2018-12-17T07:45:24.282Z,28.50
2018-12-17T07:47:51.944Z,29.50
2018-12-17T07:50:19.134Z,29.73
2018-12-17T07:52:46.390Z,31.50
2018-12-17T07:55:13.525Z,25.43
2018-12-17T07:57:40.674Z,28.30
2018-12-17T08:00:08.033Z,26.33
2018-12-17T08:02:35.429Z,26.43
2018-12-17T08:05:03.515Z,24.53
2018-12-17T08:07:30.801Z,22.83
2018-12-17T08:09:57.914Z,22.07
2018-12-17T08:12:25.172Z,22.83
2018-12-17T08:14:52.405Z,24.40
2018-12-17T08:17:19.602Z,23.13
2018-12-17T08:19:46.926Z,26.47
2018-12-17T08:22:14.061Z,28.73
2018-12-17T08:24:41.213Z,26.10
2018-12-17T08:27:08.474Z,26.00
2018-12-17T08:29:35.693Z,25.73
2018-12-17T08:32:02.942Z,27.13
2018-12-17T08:34:30.155Z,27.33
2018-12-17T08:36:57.393Z,24.33
2018-12-17T08:39:24.503Z,26.47
2018-12-17T08:41:51.725Z,23.50
2018-12-17T08:44:19.098Z,27.30
2018-12-17T08:46:46.262Z,28.13
2018-12-17T08:49:13.493Z,24.13
2018-12-17T08:51:40.728Z,28.80
2018-12-17T08:54:07.971Z,26.47
2018-12-17T08:56:35.089Z,25.67
2018-12-17T08:59:02.461Z,29.90
2018-12-17T09:01:29.692Z,26.77
2018-12-17T09:03:56.934Z,25.93
2018-12-17T09:06:24.226Z,25.27
2018-12-17T09:08:51.440Z,27.77
2018-12-17T09:11:18.804Z,24.63
2018-12-17T09:13:46.177Z,25.63
2018-12-17T09:16:13.441Z,27.83
2018-12-17T09:18:40.567Z,26.13
2018-12-17T09:21:07.807Z,25.27
2018-12-17T09:23:35.158Z,24.10
2018-12-17T09:26:02.514Z,25.77
2018-12-17T09:28:29.653Z,20.97
2018-12-17T09:30:56.877Z,23.17
2018-12-17T09:33:24.117Z,24.57
2018-12-17T09:35:51.385Z,23.27
2018-12-17T09:38:18.519Z,16.50
2018-12-17T09:40:45.634Z,19.20
2018-12-17T09:43:12.894Z,15.63
2018-12-17T09:45:40.134Z,19.73
2018-12-17T09:48:07.269Z,17.73
2018-12-17T09:50:34.393Z,17.30
2018-12-17T09:53:01.523Z,17.83
2018-12-17T09:55:28.765Z,18.53
2018-12-17T09:57:55.873Z,17.63
2018-12-17T10:00:25.534Z,16.43
2018-12-17T10:02:52.156Z,18.50
2018-12-17T10:05:19.292Z,18.50
2018-12-17T10:07:46.426Z,16.03
2018-12-17T10:10:13.575Z,21.97
2018-12-17T10:12:40.686Z,17.13
2018-12-17T10:15:07.934Z,16.50
2018-12-17T10:17:35.072Z,19.53
2018-12-17T10:20:02.953Z,18.97
2018-12-17T10:22:30.074Z,18.33
2018-12-17T10:24:57.193Z,19.17
2018-12-17T10:27:24.314Z,18.13
2018-12-17T10:29:51.459Z,18.30
2018-12-17T10:32:18.591Z,20.07
2018-12-17T10:34:45.818Z,22.50
2018-12-17T10:37:12.939Z,20.43
2018-12-17T10:39:40.289Z,23.87
2018-12-17T10:42:07.579Z,23.57
2018-12-17T10:44:34.742Z,21.30
2018-12-17T10:47:01.873Z,23.37
2018-12-17T10:49:29.150Z,22.77
2018-12-17T10:52:03.658Z,20.60
2018-12-17T10:54:30.788Z,22.33
2018-12-17T10:56:57.896Z,20.73
2018-12-17T10:59:25.005Z,25.17
2018-12-17T11:02:23.319Z,25.97
2018-12-17T11:05:22.909Z,22.20
2018-12-17T11:07:50.166Z,23.70
2018-12-17T11:10:17.297Z,27.67
2018-12-17T11:12:44.545Z,23.07
2018-12-17T11:15:12.021Z,22.93
2018-12-17T11:17:39.168Z,22.67
2018-12-17T11:20:08.161Z,24.33
2018-12-17T11:22:35.293Z,25.47
2018-12-17T11:25:03.422Z,22.30
2018-12-17T11:27:30.601Z,23.63
2018-12-17T11:29:57.829Z,22.83
2018-12-17T11:32:24.979Z,22.67
2018-12-17T11:34:52.095Z,21.67
2018-12-17T11:37:19.209Z,21.73
2018-12-17T11:39:46.564Z,20.23
2018-12-17T11:42:13.688Z,21.97
2018-12-17T11:44:40.789Z,22.03
2018-12-17T11:47:07.923Z,22.37
2018-12-17T11:49:35.117Z,23.87
2018-12-17T11:52:02.479Z,22.90
2018-12-17T11:54:29.711Z,24.83
2018-12-17T11:59:10.110Z,24.20
2018-12-17T12:01:37.250Z,21.03
2018-12-17T12:04:04.481Z,21.30
2018-12-17T12:06:31.694Z,20.70
2018-12-17T12:08:58.807Z,24.27
2018-12-17T12:11:25.968Z,20.87
2018-12-17T12:13:53.105Z,19.20
2018-12-17T12:16:20.265Z,20.90
2018-12-17T12:18:47.385Z,26.03
2018-12-17T12:21:14.499Z,22.70
2018-12-17T12:23:41.680Z,20.20
2018-12-17T12:26:08.798Z,22.57
2018-12-17T12:28:35.925Z,23.53
2018-12-17T12:31:03.158Z,25.63
2018-12-17T12:33:31.365Z,24.17
2018-12-17T12:35:58.474Z,22.27
2018-12-17T12:38:25.590Z,23.50
2018-12-17T12:40:52.748Z,29.20
2018-12-17T12:43:19.969Z,28.13
2018-12-17T12:45:47.209Z,28.40
2018-12-17T12:48:14.353Z,27.50
2018-12-17T12:50:41.476Z,24.17
2018-12-17T12:53:08.706Z,23.33
2018-12-17T12:55:35.809Z,23.07
2018-12-17T12:58:03.798Z,22.20
2018-12-17T13:00:31.314Z,19.07
2018-12-17T13:02:58.550Z,19.50
2018-12-17T13:05:25.981Z,17.40
2018-12-17T13:07:53.214Z,16.30
2018-12-17T13:10:20.445Z,18.53
2018-12-17T13:12:47.562Z,16.63
2018-12-17T13:15:14.758Z,19.23
2018-12-17T13:17:41.912Z,18.43
2018-12-17T13:20:09.423Z,17.87
2018-12-17T13:22:36.857Z,19.37
2018-12-17T13:25:05.777Z,24.90
2018-12-17T13:27:32.974Z,20.43
2018-12-17T13:30:00.089Z,18.83
2018-12-17T13:32:27.234Z,19.50
2018-12-17T13:34:54.345Z,18.60
2018-12-17T13:37:21.480Z,22.37
2018-12-17T13:39:48.669Z,15.93
2018-12-17T13:42:15.773Z,16.97
2018-12-17T13:44:42.902Z,17.07
2018-12-17T13:47:10.078Z,16.80
2018-12-17T13:49:37.205Z,17.87
2018-12-17T13:52:10.233Z,14.90
2018-12-17T13:54:37.373Z,17.13
2018-12-17T13:57:04.501Z,14.73
2018-12-17T13:59:31.634Z,13.47
2018-12-17T14:01:58.766Z,14.40
2018-12-17T14:04:26.039Z,12.87
2018-12-17T14:06:53.153Z,17.57
2018-12-17T14:09:20.419Z,16.60
2018-12-17T14:11:47.526Z,16.37
2018-12-17T14:14:14.703Z,17.43
2018-12-17T14:16:47.594Z,17.13
2018-12-17T14:19:21.362Z,18.00
2018-12-17T14:21:54.169Z,16.57
2018-12-17T14:24:21.309Z,17.47
2018-12-17T14:26:49.226Z,16.33
2018-12-17T14:29:16.340Z,21.50
2018-12-17T14:31:43.564Z,16.77
2018-12-17T14:34:10.680Z,18.87
2018-12-17T14:36:37.929Z,18.17
2018-12-17T14:39:06.747Z,20.07
2018-12-17T14:41:34.283Z,19.80
2018-12-17T14:44:38.849Z,22.03
2018-12-17T14:47:06.122Z,17.80
2018-12-17T14:49:33.248Z,19.17
2018-12-17T14:52:00.477Z,18.37
2018-12-17T14:54:27.649Z,19.30
2018-12-17T14:56:54.765Z,18.73
2018-12-17T14:59:21.989Z,17.60
2018-12-17T15:01:49.177Z,17.33
2018-12-17T15:04:16.384Z,17.70
2018-12-17T15:06:43.545Z,20.13
2018-12-17T15:09:10.687Z,21.23
2018-12-17T15:11:38.173Z,20.50
2018-12-17T15:14:05.418Z,19.90
2018-12-17T15:16:32.782Z,19.50
2018-12-17T15:18:59.905Z,19.27
2018-12-17T15:21:27.159Z,20.67
2018-12-17T15:23:54.268Z,18.27
2018-12-17T15:26:21.542Z,20.33
2018-12-17T15:28:48.760Z,20.03
2018-12-17T15:31:16.002Z,19.37
2018-12-17T15:33:43.405Z,17.40
2018-12-17T15:36:10.517Z,18.93
2018-12-17T15:38:37.837Z,20.87
2018-12-17T15:41:05.038Z,20.37
2018-12-17T15:43:32.277Z,19.83
2018-12-17T15:45:59.416Z,19.13
2018-12-17T15:48:26.538Z,17.67
2018-12-17T15:50:53.782Z,16.70
2018-12-17T15:53:20.898Z,20.27
2018-12-17T15:55:48.030Z,18.60
2018-12-17T15:58:15.135Z,18.80
2018-12-17T16:00:42.249Z,21.13
2018-12-17T16:03:09.377Z,19.80
2018-12-17T16:05:36.550Z,21.77
2018-12-17T16:08:03.782Z,17.47
2018-12-17T16:10:30.891Z,20.90
2018-12-17T16:12:58.018Z,18.10
2018-12-17T16:15:25.229Z,20.00
2018-12-17T16:20:26.258Z,17.53
2018-12-17T16:22:53.405Z,19.70
2018-12-17T16:25:20.741Z,16.70
2018-12-17T16:27:48.187Z,16.10
2018-12-17T16:30:22.118Z,17.57
2018-12-17T16:32:49.258Z,15.77
2018-12-17T16:35:16.505Z,17.10
2018-12-17T16:37:43.800Z,16.83
2018-12-17T16:40:11.156Z,17.83
2018-12-17T16:42:38.382Z,14.10
2018-12-17T16:45:07.647Z,14.67
2018-12-17T16:47:34.895Z,14.90
2018-12-17T16:50:02.286Z,15.10
2018-12-17T16:52:29.413Z,14.63
2018-12-17T16:54:56.681Z,14.70
2018-12-17T16:57:23.817Z,16.87
2018-12-17T16:59:50.933Z,14.90
2018-12-17T17:02:18.069Z,13.43
2018-12-17T17:04:45.202Z,15.03
2018-12-17T17:07:12.440Z,14.30
2018-12-17T17:09:39.669Z,14.07
2018-12-17T17:12:06.837Z,14.83
2018-12-17T17:14:33.978Z,14.83
2018-12-17T17:17:01.259Z,15.47
2018-12-17T17:19:28.497Z,14.90
2018-12-17T17:21:55.637Z,19.60
2018-12-17T17:24:23.789Z,16.60
2018-12-17T17:26:50.922Z,21.23
2018-12-17T17:29:18.042Z,16.43
2018-12-17T17:31:45.173Z,18.13
2018-12-17T17:34:12.311Z,16.70
2018-12-17T17:36:39.565Z,18.77
2018-12-17T17:39:07.580Z,22.20
2018-12-17T17:41:35.616Z,20.70
2018-12-17T17:44:02.866Z,19.53
2018-12-17T17:46:29.977Z,18.37
2018-12-17T17:48:57.126Z,20.13
2018-12-17T17:51:24.415Z,25.27
2018-12-17T17:53:51.545Z,21.13
2018-12-17T17:56:18.662Z,23.77
2018-12-17T17:58:45.981Z,22.97
2018-12-17T18:01:13.129Z,19.93
2018-12-17T18:03:40.266Z,22.83
2018-12-17T18:06:07.393Z,24.53
2018-12-17T18:08:34.522Z,24.17
2018-12-17T18:11:01.654Z,22.90
2018-12-17T18:13:28.813Z,22.97
2018-12-17T18:15:55.997Z,28.17
2018-12-17T18:18:23.229Z,30.90
2018-12-17T18:20:50.391Z,32.73
2018-12-17T18:23:17.505Z,30.97
2018-12-17T18:25:44.693Z,34.58
2018-12-17T18:28:11.826Z,34.17
2018-12-17T18:30:39.001Z,34.90
2018-12-17T18:33:07.127Z,37.37
2018-12-17T18:35:34.325Z,31.80
2018-12-17T18:38:01.565Z,31.20
2018-12-17T18:40:28.696Z,34.13
2018-12-17T18:42:55.817Z,31.30
2018-12-17T18:45:23.033Z,47.90
2018-12-17T18:47:50.155Z,43.20
2018-12-17T18:50:17.417Z,44.20
2018-12-17T18:52:44.553Z,40.03
2018-12-17T18:55:11.804Z,40.53
2018-12-17T19:01:10.448Z,39.53
2018-12-17T19:03:37.689Z,41.53
2018-12-17T19:06:04.941Z,40.33
2018-12-17T19:08:32.168Z,32.40
2018-12-17T19:10:59.332Z,37.00
2018-12-17T19:13:26.447Z,42.30
2018-12-17T19:15:53.819Z,43.55
2018-12-17T19:18:21.511Z,43.73
2018-12-17T19:20:49.245Z,47.78
2018-12-17T19:23:16.650Z,47.53
2018-12-17T19:25:45.468Z,45.85
2018-12-17T19:28:13.222Z,43.97
2018-12-17T19:30:43.434Z,45.95
2018-12-17T19:33:11.470Z,47.48
2018-12-17T19:35:39.213Z,50.87
2018-12-17T19:38:06.730Z,48.50
2018-12-17T19:40:34.311Z,45.67
2018-12-17T19:43:01.654Z,42.40
2018-12-17T19:45:29.223Z,38.27
2018-12-17T19:47:56.718Z,39.05
2018-12-17T19:50:24.110Z,35.90
2018-12-17T19:52:51.565Z,35.48
2018-12-17T19:55:19.062Z,32.38
2018-12-17T19:57:46.644Z,29.70
2018-12-17T20:00:13.944Z,29.30
2018-12-17T20:02:46.845Z,27.73
2018-12-17T20:05:10.498Z,31.17
2018-12-17T20:07:37.661Z,30.53
2018-12-17T20:10:07.285Z,32.90
2018-12-17T20:12:34.641Z,38.63
2018-12-17T20:15:01.814Z,36.38
2018-12-17T20:17:28.993Z,47.80
2018-12-17T20:19:56.113Z,41.80
2018-12-17T20:22:23.246Z,42.67
2018-12-17T20:24:50.369Z,45.13
2018-12-17T20:27:17.497Z,41.47
2018-12-17T20:29:50.266Z,42.20
2018-12-17T20:32:13.869Z,32.20
2018-12-17T20:34:41.222Z,37.08
2018-12-17T20:37:08.478Z,35.97
2018-12-17T20:39:35.955Z,37.77
2018-12-17T20:42:03.202Z,34.85
2018-12-17T20:44:30.362Z,33.57
2018-12-17T20:46:57.481Z,29.57
2018-12-17T20:49:24.615Z,39.80
2018-12-17T20:51:51.751Z,40.80
2018-12-17T20:54:18.898Z,44.50
2018-12-17T20:56:46.032Z,41.90
2018-12-17T20:59:13.298Z,50.70
2018-12-17T21:01:40.541Z,41.33
2018-12-17T21:04:07.669Z,38.55
2018-12-17T21:06:34.814Z,39.13
2018-12-17T21:09:02.145Z,42.15
2018-12-17T21:11:29.491Z,36.95
2018-12-17T21:13:56.637Z,37.05
2018-12-17T21:16:24.846Z,37.93
2018-12-17T21:18:52.298Z,44.90
2018-12-17T21:21:19.655Z,40.55
2018-12-17T21:23:47.218Z,42.35
2018-12-17T21:26:14.585Z,40.17
2018-12-17T21:28:41.769Z,43.02
2018-12-17T21:31:09.362Z,42.70
2018-12-17T21:33:36.521Z,45.63
2018-12-17T21:36:03.688Z,45.78
2018-12-17T21:38:30.945Z,46.23
2018-12-17T21:40:58.210Z,45.95
2018-12-17T21:43:25.443Z,46.90
2018-12-17T21:45:53.047Z,43.75
2018-12-17T21:48:20.443Z,40.60
2018-12-17T21:50:47.882Z,40.35
2018-12-17T21:53:15.213Z,38.75
2018-12-17T21:55:42.465Z,34.90
2018-12-17T21:58:09.680Z,29.10
2018-12-17T22:00:37.045Z,31.45
2018-12-17T22:03:04.476Z,33.87
2018-12-17T22:05:31.685Z,28.55
2018-12-17T22:07:59.050Z,30.70
2018-12-17T22:10:31.205Z,29.77
2018-12-17T22:12:58.337Z,32.20
2018-12-17T22:15:25.478Z,32.35
2018-12-17T22:17:52.682Z,29.77
2018-12-17T22:20:19.932Z,50.20
2018-12-17T22:22:47.703Z,35.15
2018-12-17T22:25:14.967Z,27.10
2018-12-17T22:27:42.450Z,28.60
2018-12-17T22:30:10.005Z,36.38
2018-12-17T22:32:37.348Z,29.57
2018-12-17T22:35:06.661Z,38.60
2018-12-17T22:37:33.784Z,38.40
2018-12-17T22:40:00.893Z,32.87
2018-12-17T22:42:28.070Z,34.27
2018-12-17T22:44:55.182Z,32.50
2018-12-17T22:47:22.321Z,37.77
2018-12-17T22:49:49.497Z,33.83
2018-12-17T22:52:16.738Z,39.60
2018-12-17T22:54:43.877Z,36.73
2018-12-17T22:57:11.125Z,37.20
2018-12-17T22:59:38.317Z,33.98
2018-12-17T23:02:05.580Z,32.42
2018-12-17T23:04:32.719Z,35.17
2018-12-17T23:06:59.949Z,39.23
2018-12-17T23:09:26.184Z,36.23
2018-12-17T23:12:08.126Z,36.85
2018-12-17T23:14:46.957Z,41.30
2018-12-17T23:17:25.698Z,38.73
2018-12-17T23:19:53.057Z,37.20
2018-12-17T23:22:20.329Z,39.07
2018-12-17T23:24:47.765Z,38.63
2018-12-17T23:27:15.009Z,36.88
2018-12-17T23:29:42.241Z,40.93
2018-12-17T23:32:09.365Z,38.70
2018-12-17T23:34:36.870Z,39.80
2018-12-17T23:37:04.269Z,37.53
2018-12-17T23:39:31.521Z,42.07
2018-12-17T23:41:58.673Z,34.40
2018-12-17T23:44:26.049Z,35.27
2018-12-17T23:46:53.186Z,38.33
2018-12-17T23:49:20.445Z,38.80
2018-12-17T23:51:47.802Z,42.13
2018-12-17T23:54:15.357Z,43.43
2018-12-17T23:56:42.593Z,44.50
2018-12-17T23:59:10.041Z,45.10
